.
WxDataArchive / Data Records for 2010-08-12
2010-08-11 August 2010 2010-08-13

Data Records for Thursday, 12 August 2010

Time	Temp	Chill	HIndex	Humid	Dewpt	 Wind 	HiWind	WindDir	Rain 	Barom 
-----	----	-----	------	-----	-----	------	------	-------	-----	----- 
00:00	73.9	73.9	73.9	92	71.4	0	0	---	0.00	29.820 
00:05	73.9	73.9	73.9	92	71.4	0	0	---	0.00	29.820 
00:10	73.7	73.7	73.7	93	71.5	0	0	---	0.00	29.820 
00:15	73.7	73.7	73.7	93	71.5	0	0	---	0.00	29.815 
00:20	73.7	73.7	73.7	93	71.5	0	0	---	0.00	29.815 
00:25	73.5	73.5	73.5	93	71.3	0	0	---	0.00	29.815 
00:30	73.5	73.5	73.5	93	71.3	0	0	---	0.00	29.816 
00:35	73.5	73.5	73.5	93	71.3	0	0	---	0.00	29.816 
00:40	73.3	73.3	73.3	93	71.1	0	0	---	0.00	29.816 
00:45	73.3	73.3	73.3	94	71.5	0	0	---	0.00	29.816 
00:50	73.2	73.2	73.2	94	71.4	0	0	---	0.00	29.816 
00:55	73.2	73.2	73.2	94	71.4	0	0	---	0.00	29.816 
01:00	73.0	73.0	73.0	94	71.2	0	0	---	0.00	29.814 
01:05	73.0	73.0	73.0	94	71.2	0	0	---	0.00	29.814 
01:10	73.0	73.0	73.0	94	71.2	0	0	---	0.00	29.814 
01:15	72.8	72.8	72.8	94	71.0	0	0	---	0.00	29.809 
01:20	72.8	72.8	72.8	94	71.0	0	0	---	0.00	29.809 
01:25	72.7	72.7	72.7	94	70.9	0	0	---	0.00	29.809 
01:30	72.7	72.7	72.7	94	70.9	0	0	---	0.00	29.811 
01:35	72.5	72.5	72.5	94	70.7	0	0	---	0.00	29.811 
01:40	72.3	72.3	72.3	94	70.5	0	0	---	0.00	29.811 
01:45	72.3	72.3	72.3	94	70.5	0	0	---	0.00	29.808 
01:50	72.1	72.1	72.1	94	70.3	0	0	---	0.00	29.808 
01:55	72.0	72.0	72.0	94	70.2	0	0	---	0.00	29.808 
02:00	72.0	72.0	72.0	94	70.2	0	0	---	0.00	29.809 
02:05	72.0	72.0	72.0	94	70.2	0	0	---	0.00	29.809 
02:10	71.8	71.8	71.8	94	70.0	0	0	---	0.00	29.809 
02:15	71.8	71.8	71.8	94	70.0	0	0	---	0.00	29.806 
02:20	71.6	71.6	71.6	94	69.8	0	0	---	0.00	29.806 
02:25	71.6	71.6	71.6	95	70.1	0	0	---	0.00	29.806 
02:30	71.6	71.6	71.6	95	70.1	0	0	---	0.00	29.804 
02:35	71.6	71.6	71.6	95	70.1	0	0	---	0.00	29.804 
02:40	71.5	71.5	71.5	95	70.0	0	0	---	0.00	29.804 
02:45	71.5	71.5	71.5	95	70.0	0	0	---	0.00	29.808 
02:50	71.5	71.5	71.5	95	70.0	0	0	---	0.00	29.808 
02:55	71.3	71.3	71.3	95	69.8	0	0	---	0.00	29.808 
03:00	71.3	71.3	71.3	95	69.8	0	0	---	0.00	29.809 
03:05	71.3	71.3	71.3	95	69.8	0	0	---	0.00	29.809 
03:10	71.1	71.1	71.1	95	69.6	0	0	---	0.00	29.809 
03:15	71.1	71.1	71.1	95	69.6	0	0	---	0.00	29.803 
03:20	71.3	71.3	71.3	95	69.8	0	0	---	0.00	29.803 
03:25	71.3	71.3	71.3	95	69.8	0	0	---	0.00	29.803 
03:30	71.3	71.3	71.3	95	69.8	0	0	---	0.00	29.803 
03:35	71.3	71.3	71.3	95	69.8	0	0	---	0.00	29.803 
03:40	71.3	71.3	71.3	95	69.8	0	0	---	0.00	29.803 
03:45	71.1	71.1	71.1	95	69.6	0	0	---	0.00	29.801 
03:50	71.1	71.1	71.1	95	69.6	0	0	---	0.00	29.801 
03:55	71.1	71.1	71.1	95	69.6	0	0	---	0.00	29.801 
04:00	70.9	70.9	70.9	95	69.4	0	0	---	0.00	29.798 
04:05	70.9	70.9	70.9	96	69.7	0	0	---	0.00	29.798 
04:10	71.1	71.1	71.1	96	69.9	0	0	---	0.00	29.798 
04:15	71.1	71.1	71.1	96	69.9	0	0	---	0.00	29.801 
04:20	70.9	70.9	70.9	95	69.4	0	0	---	0.00	29.801 
04:25	70.9	70.9	70.9	96	69.7	0	0	---	0.00	29.801 
04:30	70.9	70.9	70.9	96	69.7	0	0	---	0.00	29.798 
04:35	70.9	70.9	70.9	96	69.7	0	0	---	0.00	29.798 
04:40	70.9	70.9	70.9	96	69.7	0	0	---	0.00	29.798 
04:45	70.9	70.9	70.9	96	69.7	0	0	---	0.00	29.798 
04:50	70.9	70.9	70.9	96	69.7	0	0	---	0.00	29.798 
04:55	70.9	70.9	70.9	96	69.7	0	0	---	0.00	29.798 
05:00	70.9	70.9	70.9	96	69.7	0	0	---	0.00	29.798 
05:05	70.9	70.9	70.9	96	69.7	0	0	---	0.00	29.798 
05:10	70.8	70.8	70.8	96	69.6	0	0	---	0.00	29.798 
05:15	70.8	70.8	70.8	96	69.6	0	0	---	0.00	29.798 
05:20	70.6	70.6	70.6	96	69.4	0	0	---	0.00	29.798 
05:25	70.6	70.6	70.6	96	69.4	0	0	---	0.00	29.798 
05:30	70.8	70.8	70.8	96	69.6	0	0	---	0.00	29.798 
05:35	70.8	70.8	70.8	96	69.6	0	0	---	0.00	29.798 
05:40	70.8	70.8	70.8	96	69.6	0	0	---	0.00	29.798 
05:45	70.8	70.8	70.8	96	69.6	0	0	---	0.00	29.798 
05:50	70.9	70.9	70.9	96	69.7	0	0	---	0.00	29.798 
05:55	70.9	70.9	70.9	96	69.7	0	0	---	0.00	29.798 
06:00	70.9	70.9	70.9	96	69.7	0	0	---	0.00	29.796 
06:05	70.9	70.9	70.9	96	69.7	0	0	---	0.00	29.796 
06:10	70.9	70.9	70.9	96	69.7	0	0	---	0.00	29.796 
06:15	70.9	70.9	70.9	96	69.7	0	0	---	0.00	29.802 
06:20	70.9	70.9	70.9	95	69.4	0	0	---	0.00	29.802 
06:25	70.9	70.9	70.9	95	69.4	0	0	---	0.00	29.802 
06:30	70.8	70.8	70.8	95	69.3	0	0	---	0.00	29.807 
06:35	70.6	70.6	70.6	95	69.1	0	0	---	0.00	29.807 
06:40	70.6	70.6	70.6	95	69.1	0	0	---	0.00	29.807 
06:45	70.4	70.4	70.4	95	68.9	0	0	---	0.00	29.810 
06:50	70.4	70.4	70.4	95	68.9	0	0	---	0.00	29.810 
06:55	70.4	70.4	70.4	95	68.9	0	0	---	0.00	29.810 
07:00	70.4	70.4	70.4	95	68.9	0	0	---	0.00	29.810 
07:05	70.4	70.4	70.4	95	68.9	0	0	---	0.00	29.810 
07:10	70.4	70.4	70.4	95	68.9	0	0	---	0.00	29.810 
07:15	70.4	70.4	70.4	95	68.9	0	0	---	0.00	29.818 
07:20	70.4	70.4	70.4	95	68.9	0	0	---	0.00	29.818 
07:25	70.6	70.6	70.6	95	69.1	0	0	---	0.00	29.818 
07:30	70.8	70.8	70.8	95	69.3	0	0	---	0.00	29.818 
07:35	71.1	71.1	71.1	95	69.6	0	1	90	0.00	29.818 
07:40	71.5	71.5	71.5	95	70.0	0	1	90	0.00	29.818 
07:45	71.6	71.6	71.6	95	70.1	0	1	90	0.00	29.819 
07:50	72.0	72.0	72.0	95	70.5	0	2	90	0.00	29.819 
07:55	72.3	72.3	72.3	95	70.8	0	2	90	0.00	29.819 
08:00	72.5	72.5	72.5	94	70.7	0	1	90	0.00	29.819 
08:05	72.8	72.8	72.8	94	71.0	0	1	90	0.00	29.819 
08:10	73.2	73.2	73.2	93	71.0	0	2	90	0.00	29.819 
08:15	73.5	73.5	73.5	92	71.0	0	1	90	0.00	29.825 
08:20	73.9	73.9	73.9	91	71.1	0	1	90	0.00	29.825 
08:25	74.2	74.2	74.2	91	71.4	0	1	90	0.00	29.825 
08:30	74.6	74.6	74.6	90	71.5	0	1	90	0.00	29.828 
08:35	75.1	75.1	74.4	89	71.6	0	2	90	0.00	29.828 
08:40	75.4	75.4	75.1	88	71.6	0	1	90	0.00	29.828 
08:45	76.0	76.0	76.5	86	71.5	0	3	90	0.00	29.831 
08:50	76.5	76.5	77.5	85	71.6	1	4	270	0.00	29.831 
08:55	76.7	76.7	77.9	84	71.5	1	3	315	0.00	29.831 
09:00	77.0	77.0	78.4	84	71.8	0	2	315	0.00	29.832 
09:05	77.4	77.4	79.2	82	71.5	1	2	315	0.00	29.832 
09:10	77.7	77.7	79.8	81	71.4	1	2	315	0.00	29.832 
09:15	78.1	78.1	80.5	81	71.8	0	2	315	0.00	29.837 
09:20	78.5	78.5	81.2	80	71.8	0	2	315	0.00	29.837 
09:25	78.8	78.8	81.7	79	71.7	0	4	315	0.00	29.837 
09:30	79.0	79.0	82.1	79	71.9	0	3	292	0.00	29.832 
09:35	79.2	79.2	82.3	77	71.3	1	3	292	0.00	29.832 
09:40	79.4	79.4	82.7	77	71.5	1	3	315	0.00	29.832 
09:45	79.6	79.6	83.0	76	71.3	1	4	315	0.00	29.835 
09:50	79.8	79.8	83.3	76	71.5	1	4	292	0.00	29.835 
09:55	80.1	80.1	83.9	76	71.8	0	1	270	0.00	29.835 
10:00	80.5	80.5	84.5	75	71.8	0	1	270	0.00	29.841 
10:05	80.7	80.7	84.7	74	71.6	0	3	270	0.00	29.841 
10:10	80.9	80.9	85.0	73	71.4	0	3	270	0.00	29.841 
10:15	81.1	81.1	85.5	74	72.0	0	2	270	0.00	29.841 
10:20	81.4	81.4	85.9	73	71.9	0	2	292	0.00	29.841 
10:25	82.0	82.0	86.9	72	72.1	0	1	292	0.00	29.841 
10:30	82.2	82.2	86.8	70	71.4	1	5	270	0.00	29.841 
10:35	82.2	82.2	86.6	69	71.0	1	3	292	0.00	29.841 
10:40	82.4	82.4	86.5	67	70.3	1	2	292	0.00	29.841 
10:45	82.6	82.6	87.3	69	71.4	1	3	292	0.00	29.842 
10:50	82.8	82.8	86.7	65	69.8	1	4	270	0.00	29.842 
10:55	82.8	82.8	87.0	66	70.3	1	3	292	0.00	29.842 
11:00	83.2	83.2	87.7	66	70.6	1	4	292	0.00	29.843 
11:05	83.2	83.2	87.2	64	69.7	1	3	292	0.00	29.843 
11:10	83.6	83.6	88.2	65	70.6	1	4	292	0.00	29.843 
11:15	84.0	84.0	88.1	62	69.5	1	5	270	0.00	29.845 
11:20	84.0	84.0	87.5	60	68.6	2	5	270	0.00	29.845 
11:25	84.0	84.0	87.8	61	69.1	1	3	292	0.00	29.845 
11:30	84.1	84.1	88.2	62	69.6	1	2	292	0.00	29.844 
11:35	84.5	84.5	89.0	62	70.0	0	3	292	0.00	29.844 
11:40	84.5	84.5	87.5	57	67.6	2	4	315	0.00	29.844 
11:45	84.5	84.5	87.5	57	67.6	1	4	315	0.00	29.841 
11:50	84.5	84.5	88.1	59	68.6	1	3	292	0.00	29.841 
11:55	84.7	84.7	87.6	56	67.2	2	10	292	0.00	29.841 
12:00	84.9	84.9	87.3	54	66.4	2	4	270	0.00	29.841 
12:05	85.3	85.3	88.0	54	66.7	1	4	315	0.00	29.841 
12:10	85.3	85.3	87.7	53	66.2	1	3	315	0.00	29.841 
12:15	85.5	85.5	88.3	54	66.9	1	4	315	0.00	29.838 
12:20	85.9	85.9	89.2	55	67.8	1	2	315	0.00	29.838 
12:25	86.1	86.1	89.6	55	68.0	1	4	270	0.00	29.838 
12:30	86.1	86.1	88.9	53	66.9	1	4	292	0.00	29.840 
12:35	86.1	86.1	88.9	53	66.9	1	3	292	0.00	29.840 
12:40	86.1	86.1	89.2	54	67.5	1	4	315	0.00	29.840 
12:45	86.5	86.5	89.3	52	66.7	1	3	338	0.00	29.835 
12:50	86.5	86.5	89.6	53	67.3	1	2	338	0.00	29.835 
12:55	86.7	86.7	90.6	55	68.6	1	2	338	0.00	29.835 
13:00	87.0	87.0	90.8	54	68.3	1	3	315	0.00	29.832 
13:05	87.0	87.0	90.8	54	68.3	2	5	270	0.00	29.832 
13:10	87.0	87.0	90.4	53	67.8	1	3	292	0.00	29.832 
13:15	87.2	87.2	91.1	54	68.5	1	2	338	0.00	29.833 
13:20	87.4	87.4	91.9	55	69.2	1	3	315	0.00	29.833 
13:25	87.6	87.6	92.2	55	69.4	1	3	45	0.00	29.833 
13:30	87.4	87.4	91.1	53	68.1	1	3	315	0.00	29.834 
13:35	87.4	87.4	92.2	56	69.7	1	4	292	0.00	29.834 
13:40	87.6	87.6	91.1	52	67.8	2	4	315	0.00	29.834 
13:45	87.8	87.8	91.8	53	68.5	1	3	292	0.00	29.831 
13:50	88.0	88.0	91.8	52	68.1	2	5	315	0.00	29.831 
13:55	88.0	88.0	91.8	52	68.1	1	5	270	0.00	29.831 
14:00	88.2	88.2	92.9	54	69.4	1	3	270	0.00	29.831 
14:05	88.2	88.2	92.9	54	69.4	1	2	292	0.00	29.831 
14:10	88.4	88.4	92.9	53	69.1	0	2	45	0.00	29.831 
14:15	88.4	88.4	92.5	52	68.5	1	4	248	0.00	29.829 
14:20	88.4	88.4	92.5	52	68.5	1	4	292	0.00	29.829 
14:25	88.8	88.8	93.2	52	68.9	1	3	45	0.00	29.829 
14:30	88.6	88.6	92.1	50	67.5	1	3	315	0.00	29.822 
14:35	88.4	88.4	92.9	53	69.1	0	3	315	0.00	29.822 
14:40	88.6	88.6	92.9	52	68.7	1	5	270	0.00	29.822 
14:45	88.6	88.6	92.9	52	68.7	2	5	315	0.00	29.819 
14:50	88.8	88.8	92.4	50	67.7	1	4	315	0.00	29.819 
14:55	88.6	88.6	92.1	50	67.5	2	5	315	0.00	29.819 
15:00	88.8	88.8	93.7	53	69.4	0	3	292	0.00	29.817 
15:05	88.8	88.8	93.2	52	68.9	1	3	270	0.00	29.817 
15:10	89.3	89.3	93.7	51	68.8	1	3	270	0.00	29.817 
15:15	89.0	89.0	92.8	50	67.9	1	3	270	0.00	29.816 
15:20	88.8	88.8	93.2	52	68.9	1	4	22	0.00	29.816 
15:25	88.6	88.6	93.3	53	69.2	0	4	45	0.00	29.816 
15:30	88.4	88.4	92.1	51	67.9	0	2	225	0.00	29.812 
15:35	88.4	88.4	92.5	52	68.5	1	3	292	0.00	29.812 
15:40	88.6	88.6	92.9	52	68.7	1	2	292	0.00	29.812 
15:45	89.0	89.0	94.0	53	69.6	1	4	112	0.00	29.811 
15:50	89.5	89.5	95.5	54	70.6	0	1	90	0.00	29.811 
15:55	89.5	89.5	95.0	53	70.1	0	2	45	0.00	29.811 
16:00	89.7	89.7	94.9	52	69.7	0	3	22	0.00	29.810 
16:05	89.9	89.9	94.4	50	68.7	1	4	22	0.00	29.810 
16:10	90.1	90.1	96.7	54	71.2	0	2	270	0.00	29.810 
16:15	90.5	90.5	96.5	52	70.4	1	4	135	0.00	29.809 
16:20	90.3	90.3	95.6	51	69.7	0	3	135	0.00	29.809 
16:25	89.9	89.9	94.9	51	69.3	1	4	90	0.00	29.809 
16:30	89.5	89.5	94.5	52	69.5	2	6	112	0.00	29.808 
16:35	89.0	89.0	94.5	54	70.2	0	3	292	0.00	29.808 
16:40	88.2	88.2	92.9	54	69.4	0	1	292	0.00	29.808 
16:45	87.8	87.8	92.2	54	69.0	0	2	292	0.00	29.803 
16:50	88.4	88.4	93.3	54	69.6	1	3	90	0.00	29.803 
16:55	88.8	88.8	94.1	54	70.0	0	4	112	0.00	29.803 
17:00	89.0	89.0	94.5	54	70.2	0	3	112	0.00	29.798 
17:05	89.0	89.0	92.8	50	67.9	1	2	315	0.00	29.798 
17:10	89.0	89.0	93.2	51	68.5	0	2	315	0.00	29.798 
17:15	89.0	89.0	94.0	53	69.6	0	4	135	0.00	29.795 
17:20	88.6	88.6	93.3	53	69.2	0	2	90	0.00	29.795 
17:25	88.4	88.4	93.3	54	69.6	0	2	22	0.00	29.795 
17:30	88.2	88.2	92.5	53	68.9	0	2	22	0.00	29.795 
17:35	88.2	88.2	92.5	53	68.9	0	3	270	0.00	29.795 
17:40	88.0	88.0	92.6	54	69.2	0	2	270	0.00	29.795 
17:45	88.0	88.0	92.2	53	68.7	1	6	292	0.00	29.788 
17:50	88.0	88.0	91.8	52	68.1	0	4	135	0.00	29.788 
17:55	88.0	88.0	92.6	54	69.2	0	3	135	0.00	29.788 
18:00	87.8	87.8	91.8	53	68.5	0	3	270	0.00	29.790 
18:05	87.4	87.4	91.9	55	69.2	0	3	292	0.00	29.790 
18:10	87.2	87.2	91.1	54	68.5	0	1	158	0.00	29.790 
18:15	87.0	87.0	91.1	55	68.8	0	1	158	0.00	29.798 
18:20	87.0	87.0	91.1	55	68.8	0	3	248	0.00	29.798 
18:25	87.0	87.0	91.1	55	68.8	0	3	158	0.00	29.798 
18:30	86.7	86.7	90.3	54	68.0	0	2	158	0.00	29.798 
18:35	86.7	86.7	91.0	56	69.1	1	2	158	0.00	29.798 
18:40	86.5	86.5	91.3	58	69.9	1	3	90	0.00	29.798 
18:45	86.3	86.3	90.6	57	69.2	0	2	112	0.00	29.800 
18:50	85.9	85.9	90.2	58	69.4	0	1	112	0.00	29.800 
18:55	85.5	85.5	89.5	58	69.0	0	1	112	0.00	29.800 
19:00	85.1	85.1	89.4	60	69.6	0	0	---	0.00	29.803 
19:05	84.9	84.9	89.4	61	69.9	0	1	112	0.00	29.803 
19:10	84.9	84.9	89.4	61	69.9	0	3	112	0.00	29.803 
19:15	84.7	84.7	89.0	61	69.7	0	1	112	0.00	29.799 
19:20	84.5	84.5	88.7	61	69.5	0	1	112	0.00	29.799 
19:25	84.3	84.3	88.6	62	69.8	1	6	112	0.00	29.799 
19:30	84.1	84.1	88.8	64	70.6	1	3	90	0.00	29.805 
19:35	83.8	83.8	88.6	65	70.7	0	4	90	0.00	29.805 
19:40	83.6	83.6	88.2	65	70.6	0	2	90	0.00	29.805 
19:45	83.4	83.4	87.8	65	70.4	1	5	90	0.00	29.801 
19:50	83.2	83.2	87.5	65	70.2	0	1	90	0.00	29.801 
19:55	83.0	83.0	87.1	65	70.0	0	1	90	0.00	29.801 
20:00	83.0	83.0	87.3	66	70.4	0	1	90	0.00	29.810 
20:05	82.8	82.8	87.0	66	70.3	0	1	90	0.00	29.810 
20:10	82.8	82.8	87.2	67	70.7	0	2	90	0.00	29.810 
20:15	82.6	82.6	86.9	67	70.5	0	0	---	0.00	29.809 
20:20	82.4	82.4	86.7	68	70.8	0	1	90	0.00	29.809 
20:25	82.2	82.2	86.4	68	70.6	0	1	90	0.00	29.809 
20:30	81.8	81.8	85.7	68	70.2	0	0	---	0.00	29.813 
20:35	81.6	81.6	85.5	69	70.4	0	0	---	0.00	29.813 
20:40	81.2	81.2	84.8	69	70.0	0	0	---	0.00	29.813 
20:45	81.1	81.1	84.8	70	70.4	0	0	---	0.00	29.815 
20:50	80.7	80.7	84.3	71	70.4	0	1	90	0.00	29.815 
20:55	80.3	80.3	83.7	72	70.4	0	0	---	0.00	29.815 
21:00	79.9	79.9	83.1	73	70.4	0	0	---	0.00	29.822 
21:05	79.8	79.8	83.0	73	70.4	0	0	---	0.00	29.822 
21:10	79.4	79.4	82.4	74	70.4	0	0	---	0.00	29.822 
21:15	79.2	79.2	82.1	75	70.6	0	0	---	0.00	29.821 
21:20	78.8	78.8	81.5	76	70.6	0	0	---	0.00	29.821 
21:25	78.6	78.6	81.2	76	70.4	0	0	---	0.00	29.821 
21:30	78.5	78.5	81.1	77	70.7	0	0	---	0.00	29.824 
21:35	78.3	78.3	80.7	77	70.5	0	0	---	0.00	29.824 
21:40	78.1	78.1	80.4	78	70.7	0	0	---	0.00	29.824 
21:45	77.9	77.9	80.1	78	70.5	0	0	---	0.00	29.828 
21:50	77.6	77.6	79.6	78	70.2	0	0	---	0.00	29.828 
21:55	77.4	77.4	79.3	79	70.4	0	0	---	0.00	29.828 
22:00	77.2	77.2	78.9	79	70.2	0	0	---	0.00	29.829 
22:05	77.0	77.0	78.6	80	70.3	0	0	---	0.00	29.829 
22:10	77.0	77.0	78.5	81	70.7	0	0	---	0.00	29.829 
22:15	76.8	76.8	78.2	81	70.5	0	0	---	0.00	29.832 
22:20	76.7	76.7	78.0	82	70.8	0	2	90	0.00	29.832 
22:25	76.7	76.7	78.0	82	70.8	0	1	90	0.00	29.832 
22:30	76.7	76.7	78.0	82	70.8	0	0	---	0.00	29.836 
22:35	76.7	76.7	78.0	82	70.8	0	0	---	0.00	29.836 
22:40	76.5	76.5	77.7	82	70.6	0	0	---	0.00	29.836 
22:45	76.3	76.3	77.2	83	70.7	0	0	---	0.00	29.836 
22:50	76.1	76.1	76.9	83	70.5	0	0	---	0.00	29.836 
22:55	76.0	76.0	76.7	84	70.8	0	1	90	0.00	29.836 
23:00	75.8	75.8	76.3	84	70.6	0	1	90	0.00	29.842 
23:05	75.8	75.8	76.3	84	70.6	0	0	---	0.00	29.842 
23:10	75.6	75.6	76.0	84	70.4	0	0	---	0.00	29.842 
23:15	75.4	75.4	75.5	85	70.6	0	0	---	0.00	29.837 
23:20	75.3	75.3	75.4	85	70.5	0	0	---	0.00	29.837 
23:25	75.1	75.1	75.0	85	70.3	0	0	---	0.00	29.837 
23:30	74.9	74.9	74.9	86	70.4	0	0	---	0.00	29.836 
23:35	74.7	74.7	74.7	86	70.2	0	0	---	0.00	29.836 
23:40	74.6	74.6	74.6	86	70.1	0	0	---	0.00	29.836 
23:45	74.6	74.6	74.6	87	70.5	0	0	---	0.00	29.833 
23:50	74.4	74.4	74.4	87	70.3	0	1	90	0.00	29.833 
23:55	74.4	74.4	74.4	87	70.3	0	0	---	0.00	29.833 

CoCoRaHS
IN-AL-39
A2 Web Hosting
Creative Commons License
GoDaddy
search engine by freefind advanced

loaded 2018-11-17 12:12:57 • last modified 2010-11-18 10:43:29
Privacy PolicyDisclaimer
• wx.awcolley.com is powered by PmWiki v.2002016 •
• all content (unless otherwise noted) © 2018 A W Colley